Briefing drone pour Genlis

Rechercher une autre localisation

Conditions de vol :


Nous sommes le : Dimanche 19 septembre 2021
Il est 01:33 UTC (03:33 LT)

Lever de soleil : 04:55 UTC (06:55 LT)
Coucher de soleil : 18:09 UTC (20:09 LT)

Météo

L'essentiel des conditions de vol

VIGILANCE MÉTÉO FRANCE - Côte-dOr (21)
Vigilance Jaune : Orages / Pluie-inondation
CARTE TEMSI
CARTES DES FRONTS
METAR de LFSD
LFSD 190130Z AUTO 19007KT 130V290 3200 +RA BR FEW031/// BKN037/// OVC052/// ///CB 14/12 Q1012

Date d'émission: 19/09/2021
Heure d'émission: 01:30 UTC
Vent: 190° (variable du 130° au 290°) pour 7 KT (13 km/h)
Visibilité horizontale: 3200 m
Plafond :
- Peu de nuages à 3100ft (945m)
- Nuages morcelés à 3700ft (1128m)
- Couvert à 5200ft (1585m)
Température: 14 °C
Point de rosée: 12 °C
Humidité: 88%
Pression (QNH): 1012 hPa
Conditions: Forte pluie
TAF de LFSD
LFSD 010600Z 0100/0124 CNL

Conditions prévues :

Heure d'émission : Bulletin éffectué le 01 à 00:00 UTC
Prévision : Valide du 01 a 00:00 UTC au 01 a 23:59 UTC
Nuages : à 0ft (0 m)
WEBCAM POUR GENLIS

Réglementation

Voler en sécurité

CARTES AERONAUTIQUE 1/500.000
CARTES VAC (LFSD)
SUP AIP




Chargement des AIP...
NOTAM (GENLIS + Terrain à proximité / FIR )




Chargement des NOTAMS...
CONTACT PREFECTURE 21
Côte-dOr (21) : pref-drone@cote-dor.gouv.fr


Avertissement : Les données mises à disposition sont indicatives. Oxygène Drone ne pourra être tenu responsable de dégâts causés aux biens et aux personnes.